sensor_id;sensor_type;location;lat;lon;timestamp;P1;durP1;ratioP1;P2;durP2;ratioP2
14074;SDS011;12831;52.392;13.066;2023-05-10T00:01:48;8.05;;;4.10;;
14074;SDS011;12831;52.392;13.066;2023-05-10T00:04:14;5.75;;;3.20;;
14074;SDS011;12831;52.392;13.066;2023-05-10T00:06:40;6.78;;;3.63;;
14074;SDS011;12831;52.392;13.066;2023-05-10T00:09:05;5.53;;;3.45;;
14074;SDS011;12831;52.392;13.066;2023-05-10T00:11:31;9.25;;;4.43;;
14074;SDS011;12831;52.392;13.066;2023-05-10T00:13:57;7.00;;;4.22;;
14074;SDS011;12831;52.392;13.066;2023-05-10T00:16:23;10.85;;;4.28;;
14074;SDS011;12831;52.392;13.066;2023-05-10T00:18:49;11.30;;;4.85;;
14074;SDS011;12831;52.392;13.066;2023-05-10T00:21:14;7.05;;;3.83;;
14074;SDS011;12831;52.392;13.066;2023-05-10T00:23:40;6.38;;;4.07;;
14074;SDS011;12831;52.392;13.066;2023-05-10T00:26:06;7.00;;;3.83;;
14074;SDS011;12831;52.392;13.066;2023-05-10T00:28:32;5.53;;;3.85;;
14074;SDS011;12831;52.392;13.066;2023-05-10T00:30:57;7.88;;;3.72;;
14074;SDS011;12831;52.392;13.066;2023-05-10T00:33:23;5.10;;;3.45;;
14074;SDS011;12831;52.392;13.066;2023-05-10T00:35:49;8.25;;;4.18;;
14074;SDS011;12831;52.392;13.066;2023-05-10T00:38:15;7.60;;;3.70;;
14074;SDS011;12831;52.392;13.066;2023-05-10T00:40:41;7.63;;;3.92;;
14074;SDS011;12831;52.392;13.066;2023-05-10T00:43:06;5.35;;;3.65;;
14074;SDS011;12831;52.392;13.066;2023-05-10T00:45:32;7.20;;;3.60;;
14074;SDS011;12831;52.392;13.066;2023-05-10T00:47:59;5.60;;;3.85;;
14074;SDS011;12831;52.392;13.066;2023-05-10T00:50:26;6.63;;;3.72;;
14074;SDS011;12831;52.392;13.066;2023-05-10T00:52:52;10.63;;;4.25;;
14074;SDS011;12831;52.392;13.066;2023-05-10T00:55:18;5.88;;;3.47;;
14074;SDS011;12831;52.392;13.066;2023-05-10T00:57:44;5.22;;;4.28;;
14074;SDS011;12831;52.392;13.066;2023-05-10T01:00:09;6.68;;;3.83;;
14074;SDS011;12831;52.392;13.066;2023-05-10T01:02:36;6.75;;;4.13;;
14074;SDS011;12831;52.392;13.066;2023-05-10T01:05:02;7.68;;;3.78;;
14074;SDS011;12831;52.392;13.066;2023-05-10T01:07:31;7.05;;;3.70;;
14074;SDS011;12831;52.392;13.066;2023-05-10T01:09:57;6.97;;;3.80;;
14074;SDS011;12831;52.392;13.066;2023-05-10T01:12:23;12.13;;;5.20;;
14074;SDS011;12831;52.392;13.066;2023-05-10T01:14:49;5.65;;;3.90;;
14074;SDS011;12831;52.392;13.066;2023-05-10T01:17:15;10.18;;;4.90;;
14074;SDS011;12831;52.392;13.066;2023-05-10T01:19:41;7.00;;;4.40;;
14074;SDS011;12831;52.392;13.066;2023-05-10T01:22:12;6.80;;;3.78;;
14074;SDS011;12831;52.392;13.066;2023-05-10T01:37:50;5.05;;;3.63;;
14074;SDS011;12831;52.392;13.066;2023-05-10T01:40:31;9.32;;;4.15;;
14074;SDS011;12831;52.392;13.066;2023-05-10T01:45:27;9.93;;;4.32;;
14074;SDS011;12831;52.392;13.066;2023-05-10T01:47:58;11.50;;;4.80;;
14074;SDS011;12831;52.392;13.066;2023-05-10T01:50:27;9.30;;;5.05;;
14074;SDS011;12831;52.392;13.066;2023-05-10T01:52:55;6.88;;;4.07;;
14074;SDS011;12831;52.392;13.066;2023-05-10T01:55:23;7.75;;;4.93;;
14074;SDS011;12831;52.392;13.066;2023-05-10T01:57:51;9.98;;;4.38;;
14074;SDS011;12831;52.392;13.066;2023-05-10T02:00:18;15.07;;;4.45;;
14074;SDS011;12831;52.392;13.066;2023-05-10T02:02:45;7.25;;;4.25;;
14074;SDS011;12831;52.392;13.066;2023-05-10T02:05:11;6.28;;;4.38;;
14074;SDS011;12831;52.392;13.066;2023-05-10T02:07:38;7.40;;;4.72;;
14074;SDS011;12831;52.392;13.066;2023-05-10T02:10:05;5.32;;;3.88;;
14074;SDS011;12831;52.392;13.066;2023-05-10T02:12:36;7.78;;;5.00;;
14074;SDS011;12831;52.392;13.066;2023-05-10T02:15:04;6.35;;;4.65;;
14074;SDS011;12831;52.392;13.066;2023-05-10T02:17:31;9.13;;;4.75;;
14074;SDS011;12831;52.392;13.066;2023-05-10T02:19:58;9.80;;;4.13;;
14074;SDS011;12831;52.392;13.066;2023-05-10T02:22:25;7.47;;;3.95;;
14074;SDS011;12831;52.392;13.066;2023-05-10T02:24:52;7.13;;;3.90;;
14074;SDS011;12831;52.392;13.066;2023-05-10T02:27:18;8.93;;;4.82;;
14074;SDS011;12831;52.392;13.066;2023-05-10T02:29:45;6.97;;;4.35;;
14074;SDS011;12831;52.392;13.066;2023-05-10T02:32:11;7.50;;;4.43;;
14074;SDS011;12831;52.392;13.066;2023-05-10T02:34:38;7.97;;;4.75;;
14074;SDS011;12831;52.392;13.066;2023-05-10T02:37:04;7.97;;;4.80;;
14074;SDS011;12831;52.392;13.066;2023-05-10T02:39:31;6.72;;;5.00;;
14074;SDS011;12831;52.392;13.066;2023-05-10T02:41:57;10.85;;;5.63;;
14074;SDS011;12831;52.392;13.066;2023-05-10T02:44:23;16.85;;;5.15;;
14074;SDS011;12831;52.392;13.066;2023-05-10T02:46:50;8.95;;;5.55;;
14074;SDS011;12831;52.392;13.066;2023-05-10T02:49:16;9.70;;;5.07;;
14074;SDS011;12831;52.392;13.066;2023-05-10T02:51:44;9.63;;;4.95;;
14074;SDS011;12831;52.392;13.066;2023-05-10T02:54:18;7.28;;;4.68;;
14074;SDS011;12831;52.392;13.066;2023-05-10T02:56:47;7.53;;;4.78;;
14074;SDS011;12831;52.392;13.066;2023-05-10T02:59:13;7.88;;;5.45;;
14074;SDS011;12831;52.392;13.066;2023-05-10T03:01:39;6.53;;;3.78;;
14074;SDS011;12831;52.392;13.066;2023-05-10T03:04:05;5.80;;;4.65;;
14074;SDS011;12831;52.392;13.066;2023-05-10T03:06:31;11.57;;;5.03;;
14074;SDS011;12831;52.392;13.066;2023-05-10T03:08:57;8.25;;;5.70;;
14074;SDS011;12831;52.392;13.066;2023-05-10T03:14:10;7.88;;;4.97;;
14074;SDS011;12831;52.392;13.066;2023-05-10T03:16:42;9.05;;;4.95;;
14074;SDS011;12831;52.392;13.066;2023-05-10T03:21:41;8.75;;;5.00;;
14074;SDS011;12831;52.392;13.066;2023-05-10T03:24:09;7.13;;;4.53;;
14074;SDS011;12831;52.392;13.066;2023-05-10T03:26:37;8.68;;;5.63;;
14074;SDS011;12831;52.392;13.066;2023-05-10T03:29:04;9.00;;;5.07;;
14074;SDS011;12831;52.392;13.066;2023-05-10T03:31:30;9.20;;;5.50;;
14074;SDS011;12831;52.392;13.066;2023-05-10T03:33:56;8.65;;;5.40;;
14074;SDS011;12831;52.392;13.066;2023-05-10T03:36:22;8.63;;;5.72;;
14074;SDS011;12831;52.392;13.066;2023-05-10T03:38:48;7.97;;;5.28;;
14074;SDS011;12831;52.392;13.066;2023-05-10T03:41:14;7.13;;;4.60;;
14074;SDS011;12831;52.392;13.066;2023-05-10T03:43:39;7.20;;;5.03;;
14074;SDS011;12831;52.392;13.066;2023-05-10T03:46:06;18.33;;;8.77;;
14074;SDS011;12831;52.392;13.066;2023-05-10T03:48:32;8.82;;;6.20;;
14074;SDS011;12831;52.392;13.066;2023-05-10T03:50:58;10.60;;;5.63;;
14074;SDS011;12831;52.392;13.066;2023-05-10T03:53:24;10.52;;;4.88;;
14074;SDS011;12831;52.392;13.066;2023-05-10T03:55:50;7.35;;;4.28;;
14074;SDS011;12831;52.392;13.066;2023-05-10T03:58:15;7.88;;;4.80;;
14074;SDS011;12831;52.392;13.066;2023-05-10T04:00:41;9.10;;;4.82;;
14074;SDS011;12831;52.392;13.066;2023-05-10T04:03:11;8.90;;;4.97;;
14074;SDS011;12831;52.392;13.066;2023-05-10T04:05:59;8.63;;;6.10;;
14074;SDS011;12831;52.392;13.066;2023-05-10T04:08:40;7.53;;;4.82;;
14074;SDS011;12831;52.392;13.066;2023-05-10T04:11:09;12.68;;;4.45;;
14074;SDS011;12831;52.392;13.066;2023-05-10T04:16:59;6.78;;;4.32;;
14074;SDS011;12831;52.392;13.066;2023-05-10T04:19:30;6.05;;;4.28;;
14074;SDS011;12831;52.392;13.066;2023-05-10T04:21:57;7.28;;;4.85;;
14074;SDS011;12831;52.392;13.066;2023-05-10T04:24:38;12.73;;;4.13;;
14074;SDS011;12831;52.392;13.066;2023-05-10T04:27:13;8.25;;;4.55;;
14074;SDS011;12831;52.392;13.066;2023-05-10T04:32:10;6.13;;;3.97;;
14074;SDS011;12831;52.392;13.066;2023-05-10T04:34:52;5.97;;;4.03;;
14074;SDS011;12831;52.392;13.066;2023-05-10T04:37:33;8.63;;;5.13;;
14074;SDS011;12831;52.392;13.066;2023-05-10T04:40:07;9.70;;;3.95;;
14074;SDS011;12831;52.392;13.066;2023-05-10T04:42:41;9.80;;;4.25;;
14074;SDS011;12831;52.392;13.066;2023-05-10T04:48:28;5.18;;;3.72;;
14074;SDS011;12831;52.392;13.066;2023-05-10T04:53:49;8.80;;;3.92;;
14074;SDS011;12831;52.392;13.066;2023-05-10T04:56:30;6.38;;;3.28;;
14074;SDS011;12831;52.392;13.066;2023-05-10T04:59:12;9.50;;;3.78;;
14074;SDS011;12831;52.392;13.066;2023-05-10T05:01:39;7.05;;;3.65;;
14074;SDS011;12831;52.392;13.066;2023-05-10T05:04:20;4.78;;;3.22;;
14074;SDS011;12831;52.392;13.066;2023-05-10T05:07:03;6.82;;;3.50;;
14074;SDS011;12831;52.392;13.066;2023-05-10T05:09:44;7.53;;;3.60;;
14074;SDS011;12831;52.392;13.066;2023-05-10T05:12:15;5.30;;;3.20;;
14074;SDS011;12831;52.392;13.066;2023-05-10T05:15:16;7.32;;;2.78;;
14074;SDS011;12831;52.392;13.066;2023-05-10T05:17:58;8.40;;;3.35;;
14074;SDS011;12831;52.392;13.066;2023-05-10T19:50:37;9.63;;;5.20;;
14074;SDS011;12831;52.392;13.066;2023-05-10T19:53:18;7.18;;;3.97;;
14074;SDS011;12831;52.392;13.066;2023-05-10T19:56:03;5.43;;;3.50;;
14074;SDS011;12831;52.392;13.066;2023-05-10T19:58:31;6.38;;;3.90;;
14074;SDS011;12831;52.392;13.066;2023-05-10T20:01:14;7.13;;;4.03;;
14074;SDS011;12831;52.392;13.066;2023-05-10T20:03:44;5.50;;;3.60;;
14074;SDS011;12831;52.392;13.066;2023-05-10T20:06:27;6.13;;;4.05;;
14074;SDS011;12831;52.392;13.066;2023-05-10T20:09:08;9.40;;;4.40;;
14074;SDS011;12831;52.392;13.066;2023-05-10T22:01:51;6.30;;;4.00;;
14074;SDS011;12831;52.392;13.066;2023-05-10T22:04:17;5.30;;;4.15;;
14074;SDS011;12831;52.392;13.066;2023-05-10T22:06:43;6.38;;;3.85;;
14074;SDS011;12831;52.392;13.066;2023-05-10T22:09:09;6.03;;;3.67;;
14074;SDS011;12831;52.392;13.066;2023-05-10T22:11:35;8.10;;;4.18;;
14074;SDS011;12831;52.392;13.066;2023-05-10T22:14:01;6.88;;;3.95;;
14074;SDS011;12831;52.392;13.066;2023-05-10T22:16:27;6.55;;;4.50;;
14074;SDS011;12831;52.392;13.066;2023-05-10T22:18:53;5.57;;;3.67;;
14074;SDS011;12831;52.392;13.066;2023-05-10T22:21:19;6.07;;;3.33;;
14074;SDS011;12831;52.392;13.066;2023-05-10T22:23:45;7.28;;;3.95;;
14074;SDS011;12831;52.392;13.066;2023-05-10T22:26:11;6.70;;;4.43;;
14074;SDS011;12831;52.392;13.066;2023-05-10T22:28:37;4.88;;;3.85;;
14074;SDS011;12831;52.392;13.066;2023-05-10T22:31:07;6.68;;;4.10;;
14074;SDS011;12831;52.392;13.066;2023-05-10T22:33:33;7.03;;;4.25;;
14074;SDS011;12831;52.392;13.066;2023-05-10T22:35:59;4.80;;;3.90;;
14074;SDS011;12831;52.392;13.066;2023-05-10T22:38:24;5.60;;;4.32;;
14074;SDS011;12831;52.392;13.066;2023-05-10T22:40:50;5.70;;;4.30;;
14074;SDS011;12831;52.392;13.066;2023-05-10T22:43:16;6.30;;;4.18;;
14074;SDS011;12831;52.392;13.066;2023-05-10T22:45:42;6.40;;;3.92;;
14074;SDS011;12831;52.392;13.066;2023-05-10T22:48:08;5.57;;;3.97;;
14074;SDS011;12831;52.392;13.066;2023-05-10T22:50:34;6.55;;;4.18;;
14074;SDS011;12831;52.392;13.066;2023-05-10T22:53:01;5.50;;;3.60;;
14074;SDS011;12831;52.392;13.066;2023-05-10T22:55:27;7.57;;;3.58;;
14074;SDS011;12831;52.392;13.066;2023-05-10T22:57:53;6.80;;;4.50;;
14074;SDS011;12831;52.392;13.066;2023-05-10T23:00:19;7.93;;;3.55;;
14074;SDS011;12831;52.392;13.066;2023-05-10T23:02:45;9.35;;;4.72;;
14074;SDS011;12831;52.392;13.066;2023-05-10T23:05:11;6.28;;;4.40;;
14074;SDS011;12831;52.392;13.066;2023-05-10T23:07:37;4.25;;;3.45;;
14074;SDS011;12831;52.392;13.066;2023-05-10T23:10:03;8.30;;;3.75;;
14074;SDS011;12831;52.392;13.066;2023-05-10T23:12:29;7.28;;;4.25;;
14074;SDS011;12831;52.392;13.066;2023-05-10T23:14:56;5.25;;;4.53;;
14074;SDS011;12831;52.392;13.066;2023-05-10T23:17:21;6.82;;;4.00;;
14074;SDS011;12831;52.392;13.066;2023-05-10T23:19:47;6.03;;;3.92;;
14074;SDS011;12831;52.392;13.066;2023-05-10T23:22:13;6.15;;;4.50;;
14074;SDS011;12831;52.392;13.066;2023-05-10T23:24:39;7.53;;;4.47;;
14074;SDS011;12831;52.392;13.066;2023-05-10T23:27:05;7.20;;;4.63;;
14074;SDS011;12831;52.392;13.066;2023-05-10T23:29:30;6.65;;;4.25;;
14074;SDS011;12831;52.392;13.066;2023-05-10T23:31:57;6.00;;;4.97;;
14074;SDS011;12831;52.392;13.066;2023-05-10T23:34:23;9.55;;;4.50;;
14074;SDS011;12831;52.392;13.066;2023-05-10T23:36:48;5.82;;;4.75;;
14074;SDS011;12831;52.392;13.066;2023-05-10T23:39:14;10.38;;;6.25;;
14074;SDS011;12831;52.392;13.066;2023-05-10T23:41:40;9.48;;;5.97;;
14074;SDS011;12831;52.392;13.066;2023-05-10T23:44:05;12.75;;;7.22;;
14074;SDS011;12831;52.392;13.066;2023-05-10T23:46:31;10.70;;;6.30;;
14074;SDS011;12831;52.392;13.066;2023-05-10T23:48:57;13.05;;;6.70;;
14074;SDS011;12831;52.392;13.066;2023-05-10T23:51:23;11.90;;;8.20;;
14074;SDS011;12831;52.392;13.066;2023-05-10T23:53:48;17.75;;;8.98;;
14074;SDS011;12831;52.392;13.066;2023-05-10T23:56:14;9.85;;;6.82;;
14074;SDS011;12831;52.392;13.066;2023-05-10T23:58:40;8.73;;;6.55;;
